createdAt,value
2022-07-29T00:02:08.604Z,13.60
2022-07-29T00:04:36.840Z,13.60
2022-07-29T00:07:04.792Z,13.60
2022-07-29T00:09:32.592Z,13.60
2022-07-29T00:12:02.918Z,13.60
2022-07-29T00:14:31.021Z,13.60
2022-07-29T00:16:58.853Z,13.60
2022-07-29T00:19:26.596Z,13.50
2022-07-29T00:21:54.528Z,13.50
2022-07-29T00:24:22.435Z,13.40
2022-07-29T00:26:50.199Z,13.40
2022-07-29T00:29:35.349Z,13.40
2022-07-29T00:32:03.518Z,13.40
2022-07-29T00:34:48.865Z,13.50
2022-07-29T00:37:16.655Z,13.50
2022-07-29T00:39:44.487Z,13.50
2022-07-29T00:42:12.343Z,13.50
2022-07-29T00:44:42.444Z,13.50
2022-07-29T00:47:11.812Z,13.40
2022-07-29T00:49:42.322Z,13.30
2022-07-29T00:52:11.581Z,13.30
2022-07-29T00:54:44.474Z,13.30
2022-07-29T00:57:13.632Z,13.30
2022-07-29T00:59:42.749Z,13.20
2022-07-29T01:02:10.643Z,13.20
2022-07-29T01:04:38.582Z,13.00
2022-07-29T01:07:06.569Z,13.00
2022-07-29T01:09:46.320Z,13.10
2022-07-29T01:12:16.843Z,13.10
2022-07-29T01:14:47.522Z,13.10
2022-07-29T01:17:22.889Z,13.10
2022-07-29T01:19:57.428Z,13.10
2022-07-29T01:22:33.826Z,13.00
2022-07-29T01:25:14.566Z,13.00
2022-07-29T01:28:01.464Z,13.00
2022-07-29T01:30:33.713Z,12.80
2022-07-29T01:33:07.963Z,12.90
2022-07-29T01:35:40.351Z,12.90
2022-07-29T01:38:12.746Z,12.90
2022-07-29T01:40:45.334Z,12.90
2022-07-29T01:43:18.037Z,12.80
2022-07-29T01:45:52.685Z,12.70
2022-07-29T01:48:24.043Z,12.80
2022-07-29T01:50:55.737Z,12.80
2022-07-29T01:53:38.302Z,12.80
2022-07-29T01:56:08.326Z,12.80
2022-07-29T01:58:39.145Z,12.80
2022-07-29T02:01:10.985Z,12.80
2022-07-29T02:03:41.052Z,12.80
2022-07-29T02:06:11.390Z,12.80
2022-07-29T02:08:41.154Z,12.80
2022-07-29T02:11:10.346Z,12.80
2022-07-29T02:13:39.838Z,12.90
2022-07-29T02:16:11.494Z,12.90
2022-07-29T02:18:42.897Z,12.80
2022-07-29T02:21:14.919Z,12.80
2022-07-29T02:23:50.345Z,12.70
2022-07-29T02:26:21.128Z,12.70
2022-07-29T02:28:50.490Z,12.80
2022-07-29T02:31:22.791Z,12.80
2022-07-29T02:33:52.272Z,12.80
2022-07-29T02:36:23.592Z,12.80
2022-07-29T02:38:53.611Z,12.80
2022-07-29T02:41:25.305Z,12.80
2022-07-29T02:43:57.943Z,12.80
2022-07-29T02:46:32.596Z,12.80
2022-07-29T02:49:06.236Z,12.80
2022-07-29T02:51:44.823Z,12.80
2022-07-29T02:54:18.971Z,12.70
2022-07-29T02:56:48.492Z,12.70
2022-07-29T02:59:20.051Z,12.70
2022-07-29T03:01:49.964Z,12.70
2022-07-29T03:04:21.338Z,12.80
2022-07-29T03:06:50.496Z,12.80
2022-07-29T03:09:19.189Z,12.90
2022-07-29T03:11:49.705Z,12.80
2022-07-29T03:14:20.346Z,12.90
2022-07-29T03:16:50.953Z,12.90
2022-07-29T03:19:19.411Z,12.80
2022-07-29T03:21:47.191Z,12.80
2022-07-29T03:24:30.414Z,12.80
2022-07-29T03:26:58.949Z,12.90
2022-07-29T03:29:34.070Z,12.90
2022-07-29T03:32:08.169Z,13.00
2022-07-29T03:34:37.318Z,13.00
2022-07-29T03:37:05.312Z,13.00
2022-07-29T03:39:38.490Z,13.00
2022-07-29T03:42:08.837Z,13.00
2022-07-29T03:44:38.155Z,13.10
2022-07-29T03:47:10.177Z,13.20
2022-07-29T03:49:39.816Z,13.20
2022-07-29T03:52:07.989Z,13.30
2022-07-29T03:54:36.515Z,13.20
2022-07-29T03:57:07.569Z,13.30
2022-07-29T03:59:36.402Z,13.50
2022-07-29T04:02:05.483Z,13.50
2022-07-29T04:04:37.061Z,13.50
2022-07-29T04:07:05.329Z,13.60
2022-07-29T04:09:33.615Z,13.60
2022-07-29T04:12:02.908Z,13.70
2022-07-29T04:14:32.285Z,13.70
2022-07-29T04:17:00.091Z,13.80
2022-07-29T04:19:27.814Z,13.90
2022-07-29T04:21:57.021Z,13.90
2022-07-29T04:24:24.770Z,14.00
2022-07-29T04:26:52.516Z,14.10
2022-07-29T04:29:20.835Z,14.20
2022-07-29T04:31:48.838Z,14.20
2022-07-29T04:34:17.110Z,14.30
2022-07-29T04:36:45.102Z,14.30
2022-07-29T04:39:17.067Z,14.40
2022-07-29T04:41:48.179Z,14.40
2022-07-29T04:44:16.268Z,14.50
2022-07-29T04:46:45.635Z,14.60
2022-07-29T04:49:14.175Z,14.60
2022-07-29T04:51:42.064Z,14.60
2022-07-29T04:54:09.762Z,14.60
2022-07-29T04:56:38.853Z,14.70
2022-07-29T04:59:06.561Z,14.80
2022-07-29T05:01:34.349Z,14.80
2022-07-29T05:04:02.125Z,14.80
2022-07-29T05:06:31.324Z,14.80
2022-07-29T05:08:59.053Z,14.90
2022-07-29T05:11:30.291Z,15.00
2022-07-29T05:13:59.708Z,15.00
2022-07-29T05:16:28.276Z,15.00
2022-07-29T05:18:56.053Z,15.00
2022-07-29T05:21:23.900Z,15.00
2022-07-29T05:23:51.644Z,15.10
2022-07-29T05:26:19.393Z,15.10
2022-07-29T05:28:47.101Z,15.30
2022-07-29T05:31:16.705Z,15.30
2022-07-29T05:33:44.822Z,15.50
2022-07-29T05:36:14.292Z,15.60
2022-07-29T05:38:42.227Z,15.80
2022-07-29T05:41:10.059Z,15.90
2022-07-29T05:43:37.928Z,15.90
2022-07-29T05:46:05.791Z,16.10
2022-07-29T05:48:34.851Z,16.20
2022-07-29T05:51:03.106Z,16.40
2022-07-29T05:53:30.823Z,16.50
2022-07-29T05:55:58.608Z,16.70
2022-07-29T05:58:26.329Z,16.90
2022-07-29T06:00:54.248Z,16.90
2022-07-29T06:03:22.009Z,17.00
2022-07-29T06:05:51.126Z,17.10
2022-07-29T06:08:19.044Z,17.30
2022-07-29T06:10:47.554Z,17.50
2022-07-29T06:13:16.896Z,17.80
2022-07-29T06:15:44.834Z,18.10
2022-07-29T06:18:14.564Z,18.40
2022-07-29T06:20:42.744Z,18.40
2022-07-29T06:23:11.885Z,18.40
2022-07-29T06:25:41.429Z,18.50
2022-07-29T06:28:09.139Z,18.40
2022-07-29T06:30:36.972Z,18.30
2022-07-29T06:33:05.711Z,18.20
2022-07-29T06:35:39.490Z,18.30
2022-07-29T06:38:30.881Z,18.30
2022-07-29T06:41:03.435Z,18.40
2022-07-29T06:43:34.791Z,18.60
2022-07-29T06:46:04.293Z,18.70
2022-07-29T06:48:32.713Z,18.90
2022-07-29T06:51:01.044Z,19.00
2022-07-29T06:53:32.245Z,19.10
2022-07-29T06:56:00.879Z,19.30
2022-07-29T06:58:29.906Z,19.40
2022-07-29T07:00:58.607Z,19.70
2022-07-29T07:03:26.793Z,19.80
2022-07-29T07:05:55.257Z,20.00
2022-07-29T07:08:24.614Z,20.20
2022-07-29T07:10:53.811Z,20.40
2022-07-29T07:13:22.533Z,20.70
2022-07-29T07:15:51.751Z,21.00
2022-07-29T07:18:20.136Z,21.20
2022-07-29T07:20:48.510Z,21.60
2022-07-29T07:23:16.233Z,21.90
2022-07-29T07:25:44.115Z,22.10
2022-07-29T07:28:13.178Z,22.40
2022-07-29T07:30:41.552Z,22.50
2022-07-29T07:33:09.289Z,22.60
2022-07-29T07:35:37.240Z,22.80
2022-07-29T07:38:06.820Z,23.00
2022-07-29T07:40:34.840Z,23.20
2022-07-29T07:43:02.610Z,23.40
2022-07-29T07:45:33.536Z,23.50
2022-07-29T07:48:01.678Z,23.50
2022-07-29T07:50:29.478Z,23.70
2022-07-29T07:52:58.851Z,23.90
2022-07-29T07:55:27.728Z,24.00
2022-07-29T07:57:55.730Z,24.20
2022-07-29T08:00:24.193Z,24.40
2022-07-29T08:02:53.323Z,24.40
2022-07-29T08:05:21.195Z,24.50
2022-07-29T08:07:49.107Z,24.50
2022-07-29T08:10:38.806Z,24.30
2022-07-29T08:13:07.079Z,24.40
2022-07-29T08:15:35.641Z,24.70
2022-07-29T08:18:08.687Z,24.80
2022-07-29T08:20:38.903Z,24.90
2022-07-29T08:23:09.522Z,24.80
2022-07-29T08:25:37.629Z,24.70
2022-07-29T08:28:07.978Z,24.60
2022-07-29T08:30:36.500Z,24.50
2022-07-29T08:33:05.799Z,24.30
2022-07-29T08:35:35.703Z,24.10
2022-07-29T08:38:04.522Z,23.90
2022-07-29T08:40:32.871Z,23.80
2022-07-29T08:43:01.758Z,23.70
2022-07-29T08:45:31.376Z,23.60
2022-07-29T08:47:59.250Z,23.60
2022-07-29T08:50:28.405Z,23.80
2022-07-29T08:52:59.708Z,24.10
2022-07-29T08:55:28.731Z,24.40
2022-07-29T08:57:57.509Z,24.70
2022-07-29T09:00:27.122Z,25.10
2022-07-29T09:03:00.574Z,26.20
2022-07-29T09:05:30.611Z,27.20
2022-07-29T09:07:58.698Z,27.60
2022-07-29T09:10:26.568Z,28.10
2022-07-29T09:12:55.914Z,28.20
2022-07-29T09:15:23.662Z,28.20
2022-07-29T09:17:51.871Z,28.70
2022-07-29T09:20:21.083Z,29.80
2022-07-29T09:22:51.819Z,31.30
2022-07-29T09:25:34.588Z,32.30
2022-07-29T09:28:08.106Z,33.70
2022-07-29T09:30:35.959Z,34.30
2022-07-29T09:33:05.146Z,34.80
2022-07-29T09:35:33.456Z,35.30
2022-07-29T09:38:12.894Z,35.80
2022-07-29T09:40:41.261Z,37.10
2022-07-29T09:43:13.635Z,37.40
2022-07-29T09:45:41.712Z,36.50
2022-07-29T09:48:16.897Z,35.10
2022-07-29T09:50:46.018Z,34.00
2022-07-29T09:53:32.102Z,32.70
2022-07-29T09:56:00.365Z,31.70
2022-07-29T09:58:28.956Z,31.20
2022-07-29T10:00:57.835Z,31.10
2022-07-29T10:03:26.040Z,30.90
2022-07-29T10:06:07.775Z,30.90
2022-07-29T10:08:37.513Z,30.80
2022-07-29T10:11:13.302Z,30.60
2022-07-29T10:13:42.089Z,30.10
2022-07-29T10:16:10.749Z,29.60
2022-07-29T10:18:40.583Z,29.60
2022-07-29T10:21:08.702Z,29.50
2022-07-29T10:23:46.277Z,29.60
2022-07-29T10:26:15.453Z,29.60
2022-07-29T10:28:43.208Z,29.80
2022-07-29T10:31:17.516Z,29.80
2022-07-29T10:33:54.655Z,30.50
2022-07-29T10:36:43.481Z,31.00
2022-07-29T10:39:41.866Z,31.30
2022-07-29T10:42:20.016Z,32.80
2022-07-29T10:44:48.710Z,34.00
2022-07-29T10:47:24.141Z,35.60
2022-07-29T10:49:59.001Z,36.40
2022-07-29T10:52:57.881Z,36.60
2022-07-29T10:55:47.802Z,36.80
2022-07-29T10:58:17.937Z,36.20
2022-07-29T11:00:47.926Z,34.70
2022-07-29T11:03:49.641Z,33.00
2022-07-29T11:07:07.900Z,31.50
2022-07-29T11:09:38.623Z,30.20
2022-07-29T11:12:47.732Z,29.60
2022-07-29T11:15:19.994Z,29.30
2022-07-29T11:18:07.746Z,29.30
2022-07-29T11:20:45.678Z,29.20
2022-07-29T11:23:25.988Z,29.30
2022-07-29T11:26:21.147Z,29.30
2022-07-29T11:28:56.633Z,29.40
2022-07-29T11:31:39.101Z,29.60
2022-07-29T11:34:27.964Z,29.80
2022-07-29T11:37:17.734Z,29.80
2022-07-29T11:39:47.629Z,29.90
2022-07-29T11:42:55.210Z,30.10
2022-07-29T11:45:43.639Z,30.20
2022-07-29T11:48:28.406Z,30.30
2022-07-29T11:50:59.098Z,30.00
2022-07-29T11:53:29.136Z,30.00
2022-07-29T11:56:02.756Z,30.00
2022-07-29T11:58:32.600Z,29.80
2022-07-29T12:01:04.998Z,29.80
2022-07-29T12:03:36.064Z,30.10
2022-07-29T12:06:07.538Z,30.30
2022-07-29T12:08:43.357Z,30.20
2022-07-29T12:11:21.300Z,30.20
2022-07-29T12:13:50.595Z,30.20
2022-07-29T12:16:25.331Z,30.40
2022-07-29T12:19:02.239Z,30.70
2022-07-29T12:21:31.177Z,30.90
2022-07-29T12:24:05.739Z,30.90
2022-07-29T12:26:37.809Z,31.00
2022-07-29T12:29:11.212Z,31.10
2022-07-29T12:31:45.590Z,31.10
2022-07-29T12:34:14.732Z,31.10
2022-07-29T12:36:43.772Z,31.10
2022-07-29T12:39:12.478Z,31.20
2022-07-29T12:41:40.674Z,31.30
2022-07-29T12:44:08.557Z,31.20
2022-07-29T12:46:36.433Z,31.00
2022-07-29T12:49:06.364Z,30.60
2022-07-29T12:51:36.022Z,30.20
2022-07-29T12:54:06.732Z,29.70
2022-07-29T12:56:44.044Z,29.40
2022-07-29T12:59:17.173Z,29.20
2022-07-29T13:01:45.717Z,28.90
2022-07-29T13:04:26.434Z,28.80
2022-07-29T13:07:01.624Z,28.80
2022-07-29T13:09:39.249Z,29.10
2022-07-29T13:12:09.140Z,29.60
2022-07-29T13:14:38.372Z,29.90
2022-07-29T13:17:08.453Z,30.10
2022-07-29T13:19:41.109Z,30.30
2022-07-29T13:22:09.255Z,30.20
2022-07-29T13:24:48.108Z,30.30
2022-07-29T13:27:16.461Z,30.30
2022-07-29T13:29:44.191Z,30.30
2022-07-29T13:32:14.005Z,30.30
2022-07-29T13:34:43.070Z,30.30
2022-07-29T13:37:10.971Z,30.20
2022-07-29T13:39:39.180Z,30.10
2022-07-29T13:42:10.880Z,29.90
2022-07-29T13:44:39.072Z,29.80
2022-07-29T13:47:07.280Z,29.70
2022-07-29T13:49:35.345Z,29.80
2022-07-29T13:52:08.192Z,29.80
2022-07-29T13:54:41.938Z,29.80
2022-07-29T13:57:12.055Z,29.80
2022-07-29T13:59:40.071Z,29.80
2022-07-29T14:02:08.087Z,29.80
2022-07-29T14:04:35.895Z,29.70
2022-07-29T14:07:08.778Z,29.60
2022-07-29T14:09:41.248Z,29.60
2022-07-29T14:12:10.501Z,29.70
2022-07-29T14:14:38.459Z,29.60
2022-07-29T14:17:09.356Z,29.70
2022-07-29T14:19:38.951Z,29.60
2022-07-29T14:22:10.907Z,29.50
2022-07-29T14:24:39.652Z,29.50
2022-07-29T14:27:07.929Z,29.50
2022-07-29T14:29:38.143Z,29.60
2022-07-29T14:32:07.869Z,29.50
2022-07-29T14:34:35.802Z,29.50
2022-07-29T14:37:06.018Z,29.50
2022-07-29T14:39:42.154Z,29.50
2022-07-29T14:42:12.395Z,29.40
2022-07-29T14:44:40.581Z,29.50
2022-07-29T14:47:09.194Z,29.40
2022-07-29T14:49:36.957Z,29.20
2022-07-29T14:52:05.128Z,29.00
2022-07-29T14:54:33.251Z,28.90
2022-07-29T14:57:02.332Z,28.70
2022-07-29T14:59:30.058Z,28.60
2022-07-29T15:01:58.366Z,28.60
2022-07-29T15:04:26.397Z,28.60
2022-07-29T15:06:54.143Z,28.70
2022-07-29T15:09:21.945Z,28.80
2022-07-29T15:11:49.690Z,28.90
2022-07-29T15:14:18.769Z,29.00
2022-07-29T15:16:48.022Z,29.10
2022-07-29T15:19:16.319Z,29.10
2022-07-29T15:21:48.672Z,29.10
2022-07-29T15:24:17.002Z,29.10
2022-07-29T15:26:45.291Z,29.10
2022-07-29T15:29:13.229Z,29.10
2022-07-29T15:31:42.522Z,29.20
2022-07-29T15:34:10.325Z,29.20
2022-07-29T15:36:54.019Z,29.10
2022-07-29T15:39:22.894Z,29.10
2022-07-29T15:41:51.613Z,29.20
2022-07-29T15:44:19.451Z,29.20
2022-07-29T15:47:06.138Z,29.20
2022-07-29T15:49:48.337Z,29.10
2022-07-29T15:52:19.350Z,29.00
2022-07-29T15:54:54.392Z,29.00
2022-07-29T15:57:22.292Z,28.90
2022-07-29T15:59:50.084Z,28.90
2022-07-29T16:02:19.173Z,28.80
2022-07-29T16:04:47.217Z,28.80
2022-07-29T16:07:15.380Z,28.70
2022-07-29T16:09:43.413Z,28.50
2022-07-29T16:12:14.739Z,28.40
2022-07-29T16:14:43.638Z,28.40
2022-07-29T16:17:14.260Z,28.20
2022-07-29T16:19:45.345Z,28.10
2022-07-29T16:22:13.836Z,27.90
2022-07-29T16:24:41.791Z,27.80
2022-07-29T16:27:09.709Z,27.50
2022-07-29T16:29:37.851Z,27.40
2022-07-29T16:32:06.455Z,27.20
2022-07-29T16:34:34.602Z,27.20
2022-07-29T16:37:04.202Z,27.20
2022-07-29T16:39:32.387Z,27.20
2022-07-29T16:42:02.266Z,27.20
2022-07-29T16:44:31.811Z,27.10
2022-07-29T16:47:00.206Z,27.20
2022-07-29T16:49:29.143Z,27.20
2022-07-29T16:51:56.961Z,27.20
2022-07-29T16:54:26.016Z,27.20
2022-07-29T16:56:53.900Z,27.10
2022-07-29T16:59:21.679Z,27.10
2022-07-29T17:01:49.845Z,27.10
2022-07-29T17:04:17.705Z,27.20
2022-07-29T17:06:45.487Z,27.30
2022-07-29T17:09:15.055Z,27.30
2022-07-29T17:11:52.402Z,27.40
2022-07-29T17:14:24.078Z,27.40
2022-07-29T17:17:00.397Z,27.20
2022-07-29T17:19:32.007Z,27.10
2022-07-29T17:22:09.426Z,27.00
2022-07-29T17:24:39.826Z,26.70
2022-07-29T17:27:10.189Z,26.60
2022-07-29T17:29:38.665Z,26.50
2022-07-29T17:32:07.815Z,26.40
2022-07-29T17:34:36.066Z,26.40
2022-07-29T17:37:04.285Z,26.30
2022-07-29T17:39:32.795Z,26.20
2022-07-29T17:42:00.593Z,26.00
2022-07-29T17:44:29.686Z,26.00
2022-07-29T17:46:57.689Z,25.90
2022-07-29T17:49:26.826Z,25.70
2022-07-29T17:51:58.960Z,25.70
2022-07-29T17:54:28.769Z,25.70
2022-07-29T17:56:56.985Z,25.50
2022-07-29T17:59:25.081Z,25.30
2022-07-29T18:01:54.304Z,25.30
2022-07-29T18:04:23.478Z,25.20
2022-07-29T18:06:51.550Z,25.10
2022-07-29T18:09:19.859Z,24.90
2022-07-29T18:11:48.762Z,24.80
2022-07-29T18:14:16.989Z,24.70
2022-07-29T18:16:44.970Z,24.60
2022-07-29T18:19:14.204Z,24.50
2022-07-29T18:21:51.229Z,24.50
2022-07-29T18:24:25.213Z,24.40
2022-07-29T18:26:53.169Z,24.30
2022-07-29T18:29:20.922Z,24.30
2022-07-29T18:31:48.725Z,24.10
2022-07-29T18:34:17.946Z,24.10
2022-07-29T18:36:46.093Z,24.00
2022-07-29T18:39:21.260Z,24.00
2022-07-29T18:41:50.247Z,23.80
2022-07-29T18:44:18.894Z,23.80
2022-07-29T18:46:55.432Z,23.70
2022-07-29T18:49:24.977Z,23.60
2022-07-29T18:51:53.161Z,23.40
2022-07-29T18:54:20.946Z,23.30
2022-07-29T18:56:48.686Z,23.30
2022-07-29T18:59:19.603Z,23.10
2022-07-29T19:01:47.519Z,23.00
2022-07-29T19:04:15.569Z,22.90
2022-07-29T19:06:45.213Z,22.80
2022-07-29T19:09:13.184Z,22.80
2022-07-29T19:11:41.022Z,22.70
2022-07-29T19:14:08.787Z,22.50
2022-07-29T19:16:36.633Z,22.50
2022-07-29T19:19:04.803Z,22.30
2022-07-29T19:21:32.605Z,22.30
2022-07-29T19:24:06.592Z,22.30
2022-07-29T19:26:38.935Z,22.20
2022-07-29T19:29:06.715Z,22.20
2022-07-29T19:31:34.551Z,22.00
2022-07-29T19:34:02.404Z,21.90
2022-07-29T19:36:31.272Z,21.90
2022-07-29T19:39:00.027Z,21.80
2022-07-29T19:41:29.451Z,21.80
2022-07-29T19:43:57.648Z,21.70
2022-07-29T19:46:28.721Z,21.60
2022-07-29T19:48:57.355Z,21.60
2022-07-29T19:51:25.283Z,21.60
2022-07-29T19:53:53.341Z,21.60
2022-07-29T19:56:21.078Z,21.50
2022-07-29T19:58:50.625Z,21.50
2022-07-29T20:01:19.861Z,21.40
2022-07-29T20:03:47.782Z,21.40
2022-07-29T20:06:15.616Z,21.30
2022-07-29T20:08:43.358Z,21.20
2022-07-29T20:11:11.200Z,21.20
2022-07-29T20:13:39.058Z,21.10
2022-07-29T20:16:08.783Z,21.10
2022-07-29T20:18:36.687Z,21.00
2022-07-29T20:21:04.991Z,21.00
2022-07-29T20:23:33.516Z,21.00
2022-07-29T20:26:01.616Z,20.90
2022-07-29T20:28:29.543Z,20.90
2022-07-29T20:30:57.428Z,20.80
2022-07-29T20:33:26.610Z,20.80
2022-07-29T20:35:54.595Z,20.80
2022-07-29T20:38:22.353Z,20.70
2022-07-29T20:40:50.756Z,20.80
2022-07-29T20:43:18.544Z,20.70
2022-07-29T20:45:46.353Z,20.70
2022-07-29T20:48:14.372Z,20.70
2022-07-29T20:50:44.967Z,20.70
2022-07-29T20:53:12.782Z,20.80
2022-07-29T20:55:40.549Z,20.80
2022-07-29T20:58:08.419Z,20.90
2022-07-29T21:00:36.169Z,21.00
2022-07-29T21:03:04.143Z,20.90
2022-07-29T21:05:32.769Z,21.00
2022-07-29T21:08:01.848Z,20.90
2022-07-29T21:10:29.792Z,20.90
2022-07-29T21:12:57.567Z,20.80
2022-07-29T21:15:27.144Z,20.80
2022-07-29T21:18:00.566Z,20.70
2022-07-29T21:20:29.118Z,20.60
2022-07-29T21:22:57.924Z,20.60
2022-07-29T21:25:27.389Z,20.60
2022-07-29T21:28:12.986Z,20.60
2022-07-29T21:30:40.721Z,20.50
2022-07-29T21:33:08.503Z,20.50
2022-07-29T21:36:06.220Z,20.30
2022-07-29T21:38:24.383Z,20.40
2022-07-29T21:40:54.121Z,20.40
2022-07-29T21:43:22.216Z,20.30
2022-07-29T21:45:51.098Z,20.30
2022-07-29T21:48:19.412Z,20.20
2022-07-29T21:50:47.828Z,20.10
2022-07-29T21:53:16.106Z,20.00
2022-07-29T21:55:44.251Z,19.90
2022-07-29T21:58:15.364Z,19.90
2022-07-29T22:00:43.941Z,19.90
2022-07-29T22:03:11.985Z,19.80
2022-07-29T22:05:39.932Z,19.80
2022-07-29T22:08:08.022Z,19.70
2022-07-29T22:10:35.987Z,19.70
2022-07-29T22:13:04.224Z,19.60
2022-07-29T22:15:33.343Z,19.50
2022-07-29T22:18:01.111Z,19.50
2022-07-29T22:20:29.004Z,19.50
2022-07-29T22:22:56.757Z,19.50
2022-07-29T22:25:24.508Z,19.40
2022-07-29T22:27:52.288Z,19.40
2022-07-29T22:30:20.035Z,19.40
2022-07-29T22:32:49.637Z,19.30
2022-07-29T22:35:18.485Z,19.30
2022-07-29T22:37:46.240Z,19.30
2022-07-29T22:40:14.158Z,19.20
2022-07-29T22:42:41.877Z,19.10
2022-07-29T22:45:10.912Z,19.10
2022-07-29T22:47:48.101Z,19.10
2022-07-29T22:50:18.293Z,19.00
2022-07-29T22:52:46.902Z,19.00
2022-07-29T22:55:15.022Z,19.00
2022-07-29T22:57:42.827Z,18.90
2022-07-29T23:00:11.708Z,18.80
2022-07-29T23:02:40.344Z,18.70
2022-07-29T23:05:10.207Z,18.80
2022-07-29T23:07:39.501Z,18.70
2022-07-29T23:10:07.808Z,18.80
2022-07-29T23:12:35.612Z,18.80
2022-07-29T23:15:04.463Z,18.70
2022-07-29T23:17:36.119Z,18.70
2022-07-29T23:20:06.397Z,18.70
2022-07-29T23:22:34.286Z,18.70
2022-07-29T23:25:03.447Z,18.60
2022-07-29T23:27:31.213Z,18.50
2022-07-29T23:29:58.994Z,18.50
2022-07-29T23:32:26.760Z,18.50
2022-07-29T23:34:54.494Z,18.40
2022-07-29T23:37:22.273Z,18.40
2022-07-29T23:39:50.018Z,18.40
2022-07-29T23:42:19.116Z,18.40
2022-07-29T23:44:46.830Z,18.40
2022-07-29T23:47:14.629Z,18.40
2022-07-29T23:49:42.355Z,18.30
2022-07-29T23:52:10.153Z,18.30
2022-07-29T23:54:37.895Z,18.30
2022-07-29T23:57:05.658Z,18.30
2022-07-29T23:59:34.761Z,18.30
